Airfield :
LOGIN :

Register | Disclaimer

   EN    FR    IT 

 










Legend :    VFR   Marginal VFR   IFR   Intensive IFR   Very Intensive IFR
Visi :
Ceiling :
>= 8 km
>= 3000ft
5 to 8 km
1000 to 3000 ft
1500m to 5 km
500 to 1000 ft
800 to 1500m
200 to 500 ft
< 800m
< 200 ft
Symbols :   Thunderstorms  Fog  Heavy snow  Heavy precipitations  Wind > 20 kt
SIGMETs :     Misc.  Thunderstorms  Icing  Turbulence  Mountain Waves  Volcanic Ashes






- Airport Elevation : 39 ft
- IATA code : ANR


EBAW - Anvers / Antwerpen Deurne

CURRENT METAR :
  • 121350Z 18014KT 9999 FEW022 BKN027 06/01 Q0996 TEMPO 17015G25KT

EXPIRED METARs :
  • 121320Z 17014KT 9999 SCT020 06/01 Q0996 NOSIG
  • 121250Z 18012KT 9999 FEW022 06/02 Q0997 NOSIG
  • 121220Z 18011KT 150V220 9999 FEW021 06/02 Q0998 NOSIG
  • 121150Z 18010KT 9999 FEW018 06/02 Q0999 NOSIG
  • 121120Z 18011KT 9999 FEW016 06/02 Q0999 NOSIG

TAF TAF EBAW
Valid from the 12 at 12:00 until the 12 at 21:00 UTC


121107Z 1212/1221 17013KT 9999 FEW025
PROB30
TEMPO 1212/1214 BKN012
TEMPO 1215/1221 18015G25KT



MET'MAP, your aeronautical weather chart ! - Copyright ORBIFLY December 2007 - Disclaimer

ORBIFLY MET'MAP TEAM :

Programming & Development : Alexandra Zaïnal
Concept & original design : Baudouin d'Aumeries
Assistance for programming : Marc-Olivier Méhu
Technical & hardware support : Manuel Goepfert

Contact : metmap@orbifly.com




SOURCES & CREDITS :

   NOAA